createdAt,value
2023-03-08T00:04:00.594Z,95779.25
2023-03-08T00:09:03.017Z,95789.56
2023-03-08T00:14:04.954Z,95798.78
2023-03-08T00:19:06.881Z,95800.41
2023-03-08T00:24:08.731Z,95796.59
2023-03-08T00:29:10.736Z,95792.28
2023-03-08T00:34:12.496Z,95791.19
2023-03-08T00:39:16.564Z,95796.06
2023-03-08T00:44:18.332Z,95799.88
2023-03-08T00:49:20.190Z,95796.09
2023-03-08T00:54:21.930Z,95797.72
2023-03-08T00:59:23.781Z,95793.66
2023-03-08T01:04:25.880Z,95797.19
2023-03-08T01:09:40.337Z,95799.34
2023-03-08T01:14:52.710Z,95798.81
2023-03-08T01:19:57.420Z,95797.72
2023-03-08T01:24:59.323Z,95792.81
2023-03-08T01:30:04.020Z,95784.13
2023-03-08T01:35:06.340Z,95786.28
2023-03-08T01:40:10.879Z,95771.66
2023-03-08T01:45:50.643Z,95785.19
2023-03-08T01:50:53.049Z,95780.84
2023-03-08T01:55:55.474Z,95774.88
2023-03-08T02:00:57.755Z,95764.03
2023-03-08T02:05:59.694Z,95760.25
2023-03-08T02:11:01.848Z,95746.69
2023-03-08T02:16:07.919Z,95739.38
2023-03-08T02:21:09.943Z,95729.59
2023-03-08T02:26:11.952Z,95734.75
2023-03-08T02:31:14.747Z,95733.13
2023-03-08T02:36:16.374Z,95725.28
2023-03-08T02:41:18.071Z,95723.91
2023-03-08T02:46:19.885Z,95714.41
2023-03-08T02:51:21.716Z,95713.06
2023-03-08T02:56:23.640Z,95710.06
2023-03-08T03:01:25.836Z,95710.31
2023-03-08T03:06:27.737Z,95723.06
2023-03-08T03:11:31.463Z,95707.88
2023-03-08T03:16:33.809Z,95716.00
2023-03-08T03:21:35.727Z,95716.78
2023-03-08T03:26:37.543Z,95702.44
2023-03-08T03:31:39.342Z,95712.97
2023-03-08T03:36:41.124Z,95705.94
2023-03-08T03:41:42.864Z,95703.19
2023-03-08T03:46:47.595Z,95707.00
2023-03-08T03:51:52.708Z,95715.66
2023-03-08T03:57:00.319Z,95719.44
2023-03-08T04:02:06.273Z,95712.41
2023-03-08T04:07:13.801Z,95702.63
2023-03-08T04:12:23.327Z,95711.31
2023-03-08T04:17:25.481Z,95703.19
2023-03-08T04:22:29.379Z,95703.19
2023-03-08T04:27:39.718Z,95694.53
2023-03-08T04:32:42.513Z,95693.44
2023-03-08T04:37:46.818Z,95684.25
2023-03-08T04:42:50.779Z,95674.50
2023-03-08T04:47:58.183Z,95679.41
2023-03-08T04:53:00.053Z,95668.56
2023-03-08T04:58:03.455Z,95656.09
2023-03-08T05:03:07.007Z,95640.94
2023-03-08T05:08:08.997Z,95633.38
2023-03-08T05:13:12.216Z,95631.47
2023-03-08T05:18:14.682Z,95623.59
2023-03-08T05:23:16.621Z,95619.81
2023-03-08T05:28:20.255Z,95621.44
2023-03-08T05:33:21.951Z,95595.97
2023-03-08T05:38:25.290Z,95603.56
2023-03-08T05:43:27.994Z,95593.78
2023-03-08T05:48:31.553Z,95581.34
2023-03-08T05:53:33.778Z,95590.56
2023-03-08T05:58:37.384Z,95608.44
2023-03-08T06:03:40.379Z,95610.03
2023-03-08T06:08:42.527Z,95615.47
2023-03-08T06:13:45.292Z,95614.94
2023-03-08T06:18:48.069Z,95621.47
2023-03-08T06:23:51.949Z,95618.75
2023-03-08T06:28:54.386Z,95624.69
2023-03-08T06:33:58.173Z,95618.16
2023-03-08T06:39:02.722Z,95605.97
2023-03-08T06:44:06.431Z,95604.63
2023-03-08T06:49:09.172Z,95615.50
2023-03-08T06:54:17.351Z,95618.22
2023-03-08T06:59:20.822Z,95616.56
2023-03-08T07:04:22.539Z,95619.03
2023-03-08T07:09:24.199Z,95617.66
2023-03-08T07:14:26.663Z,95627.44
2023-03-08T07:19:28.355Z,95625.81
2023-03-08T07:24:30.119Z,95625.78
2023-03-08T07:29:32.236Z,95610.09
2023-03-08T07:34:34.072Z,95600.03
2023-03-08T07:39:35.856Z,95594.63
2023-03-08T07:44:37.940Z,95577.00
2023-03-08T07:49:39.628Z,95571.84
2023-03-08T07:54:42.111Z,95577.25
2023-03-08T07:59:43.791Z,95574.22
2023-03-08T08:04:45.653Z,95560.13
2023-03-08T08:09:47.427Z,95561.72
2023-03-08T08:14:53.263Z,95563.31
2023-03-08T08:19:55.099Z,95551.34
2023-03-08T08:24:56.889Z,95540.97
2023-03-08T08:29:59.386Z,95545.31
2023-03-08T08:35:01.072Z,95534.69
2023-03-08T08:40:04.082Z,95528.69
2023-03-08T08:45:06.440Z,95514.88
2023-03-08T08:50:08.914Z,95501.81
2023-03-08T08:55:10.670Z,95499.09
2023-03-08T09:00:13.035Z,95465.38
2023-03-08T09:05:14.800Z,95462.91
2023-03-08T09:10:16.875Z,95459.91
2023-03-08T09:15:18.676Z,95462.00
2023-03-08T09:20:23.195Z,95443.53
2023-03-08T09:25:25.341Z,95426.66
2023-03-08T09:30:27.136Z,95409.81
2023-03-08T09:35:28.936Z,95401.06
2023-03-08T09:40:33.643Z,95388.53
2023-03-08T09:45:35.898Z,95383.94
2023-03-08T09:50:44.613Z,95379.34
2023-03-08T09:55:51.851Z,95389.09
2023-03-08T10:00:57.195Z,95367.94
2023-03-08T10:06:11.708Z,95367.44
2023-03-08T10:11:21.178Z,95368.00
2023-03-08T10:16:24.932Z,95364.22
2023-03-08T10:21:29.442Z,95359.16
2023-03-08T10:26:31.321Z,95363.34
2023-03-08T10:31:33.812Z,95366.69
2023-03-08T10:36:47.778Z,95351.81
2023-03-08T10:41:53.248Z,95359.22
2023-03-08T10:46:54.889Z,95345.19
2023-03-08T10:52:00.969Z,95336.75
2023-03-08T10:57:03.094Z,95324.00
2023-03-08T11:02:13.805Z,95319.16
2023-03-08T11:07:29.092Z,95309.31
2023-03-08T11:12:30.775Z,95295.69
2023-03-08T11:17:39.456Z,95285.38
2023-03-08T11:22:58.605Z,95260.91
2023-03-08T11:28:16.721Z,95251.59
2023-03-08T11:33:45.548Z,95236.88
2023-03-08T11:38:56.831Z,95235.44
2023-03-08T11:44:24.134Z,95222.06
2023-03-08T11:49:34.776Z,95200.22
2023-03-08T11:55:02.436Z,95202.75
2023-03-08T12:00:23.085Z,95184.44
2023-03-08T12:05:30.442Z,95184.00
2023-03-08T12:11:04.766Z,95171.38
2023-03-08T12:16:23.168Z,95173.38
2023-03-08T12:21:29.934Z,95159.88
2023-03-08T12:26:54.686Z,95171.84
2023-03-08T12:31:57.227Z,95156.38
2023-03-08T12:36:59.029Z,95149.59
2023-03-08T12:42:09.862Z,95138.34
2023-03-08T12:47:11.683Z,95133.34
2023-03-08T12:52:19.635Z,95132.16
2023-03-08T12:57:24.603Z,95117.63
2023-03-08T13:02:31.032Z,95127.13
2023-03-08T13:07:40.061Z,95127.31
2023-03-08T13:13:09.615Z,95126.06
2023-03-08T13:18:17.558Z,95125.44
2023-03-08T13:23:58.708Z,95113.03
2023-03-08T13:29:00.880Z,95122.47
2023-03-08T13:34:02.652Z,95117.78
2023-03-08T13:39:18.691Z,95117.75
2023-03-08T13:44:25.812Z,95120.09
2023-03-08T13:49:32.489Z,95120.69
2023-03-08T13:54:37.311Z,95124.44
2023-03-08T13:59:54.647Z,95138.09
2023-03-08T14:04:58.694Z,95112.25
2023-03-08T14:10:01.232Z,95113.25
2023-03-08T14:15:05.652Z,95110.72
2023-03-08T14:20:20.892Z,95105.41
2023-03-08T14:25:26.229Z,95105.09
2023-03-08T14:30:30.527Z,95101.72
2023-03-08T14:35:38.561Z,95094.00
2023-03-08T14:40:49.252Z,95084.19
2023-03-08T14:45:58.287Z,95073.97
2023-03-08T14:51:02.257Z,95073.31
2023-03-08T14:56:16.874Z,95055.19
2023-03-08T15:01:34.327Z,95056.44
2023-03-08T15:06:39.365Z,95037.88
2023-03-08T15:11:41.468Z,95029.47
2023-03-08T15:16:43.249Z,95033.56
2023-03-08T15:21:45.286Z,95028.84
2023-03-08T15:26:47.051Z,95023.34
2023-03-08T15:31:48.857Z,95022.56
2023-03-08T15:36:51.923Z,95003.97
2023-03-08T15:41:53.647Z,95007.84
2023-03-08T15:46:56.141Z,95013.69
2023-03-08T15:51:57.862Z,95000.75
2023-03-08T15:56:59.738Z,94994.31
2023-03-08T16:02:02.390Z,94988.16
2023-03-08T16:07:04.390Z,94986.69
2023-03-08T16:12:06.498Z,94968.19
2023-03-08T16:17:09.053Z,94973.66
2023-03-08T16:22:11.159Z,94974.00
2023-03-08T16:27:12.941Z,94973.88
2023-03-08T16:32:18.555Z,94970.63
2023-03-08T16:37:21.239Z,94971.31
2023-03-08T16:42:23.045Z,94980.53
2023-03-08T16:47:26.609Z,94968.47
2023-03-08T16:52:29.086Z,94962.72
2023-03-08T16:57:30.876Z,94960.19
2023-03-08T17:02:32.668Z,94950.09
2023-03-08T17:07:34.615Z,94971.13
2023-03-08T17:12:36.363Z,94973.25
2023-03-08T17:17:39.701Z,94978.59
2023-03-08T17:22:42.607Z,94972.94
2023-03-08T17:27:44.344Z,94986.97
2023-03-08T17:32:47.451Z,94983.47
2023-03-08T17:37:50.088Z,94983.47
2023-03-08T17:42:51.965Z,94986.53
2023-03-08T17:48:00.609Z,94985.53
2023-03-08T17:53:02.873Z,94973.91
2023-03-08T17:58:04.527Z,94995.19
2023-03-08T18:03:06.324Z,95000.78
2023-03-08T18:08:07.941Z,94999.81
2023-03-08T18:13:10.289Z,95007.09
2023-03-08T18:18:11.908Z,95036.41
2023-03-08T18:23:13.612Z,95021.19
2023-03-08T18:28:23.557Z,95020.50
2023-03-08T18:33:28.387Z,95034.88
2023-03-08T18:38:30.071Z,95030.16
2023-03-08T18:43:32.809Z,95040.25
2023-03-08T18:48:34.542Z,95034.34
2023-03-08T18:53:37.110Z,95015.84
2023-03-08T18:58:38.886Z,95011.53
2023-03-08T19:03:41.742Z,95015.41
2023-03-08T19:08:43.755Z,95022.19
2023-03-08T19:13:46.790Z,95034.25
2023-03-08T19:18:50.382Z,95042.47
2023-03-08T19:23:52.422Z,95031.69
2023-03-08T19:28:54.241Z,95033.44
2023-03-08T19:33:56.577Z,95039.88
2023-03-08T19:38:59.840Z,95042.47
2023-03-08T19:44:06.929Z,95042.28
2023-03-08T19:49:12.864Z,95054.06
2023-03-08T19:54:14.868Z,95079.84
2023-03-08T19:59:17.346Z,95050.19
2023-03-08T20:04:19.969Z,95053.41
2023-03-08T20:09:22.474Z,95054.53
2023-03-08T20:14:24.719Z,95050.19
2023-03-08T20:19:27.335Z,95055.66
2023-03-08T20:24:29.412Z,95043.09
2023-03-08T20:29:31.121Z,95055.53
2023-03-08T20:34:33.417Z,95032.63
2023-03-08T20:39:35.064Z,95034.09
2023-03-08T20:44:36.792Z,95033.16
2023-03-08T20:49:40.182Z,95034.09
2023-03-08T20:54:42.424Z,95024.13
2023-03-08T20:59:44.295Z,95029.28
2023-03-08T21:04:46.055Z,95015.09
2023-03-08T21:09:47.994Z,95009.63
2023-03-08T21:14:53.930Z,95006.91
2023-03-08T21:19:56.099Z,94994.03
2023-03-08T21:24:57.862Z,94990.97
2023-03-08T21:30:00.409Z,94994.66
2023-03-08T21:35:02.470Z,94996.75
2023-03-08T21:40:07.155Z,94972.75
2023-03-08T21:45:09.434Z,94973.56
2023-03-08T21:50:11.748Z,94955.22
2023-03-08T21:55:13.445Z,94956.66
2023-03-08T22:00:18.271Z,94968.41
2023-03-08T22:05:20.037Z,94958.88
2023-03-08T22:10:21.922Z,94947.91
2023-03-08T22:15:23.621Z,94957.88
2023-03-08T22:20:27.460Z,94954.28
2023-03-08T22:25:29.192Z,94963.16
2023-03-08T22:30:31.038Z,94959.25
2023-03-08T22:35:32.755Z,94969.56
2023-03-08T22:40:38.248Z,94961.84
2023-03-08T22:45:40.007Z,94947.19
2023-03-08T22:50:41.975Z,94950.59
2023-03-08T22:55:47.668Z,94969.59
2023-03-08T23:00:49.732Z,94982.03
2023-03-08T23:05:53.168Z,94973.97
2023-03-08T23:10:55.166Z,94994.25
2023-03-08T23:15:56.855Z,94987.81
2023-03-08T23:21:06.566Z,94975.41
2023-03-08T23:26:12.131Z,94974.91
2023-03-08T23:31:15.276Z,94972.66
2023-03-08T23:36:20.104Z,94946.91
2023-03-08T23:41:22.180Z,94953.84
2023-03-08T23:46:25.068Z,94956.13
2023-03-08T23:51:28.128Z,94951.75
2023-03-08T23:56:38.492Z,94951.28
